Time;durP1;ratioP1;P1;durP2;ratioP2;P2;SDS_P1;SDS_P2;PMS_P1;PMS_P2;Temp;Humidity;BMP_temperature;BMP_pressure;BME280_temperature;BME280_humidity;BME280_pressure;Samples;Min_cycle;Max_cycle;Signal;HPM_P1;HPM_P2
2023/04/14 00:02:09;;;;;;;13.20;9.40;;;;;;;12.26;100.00;98567.98;105908;1260;61592;-89
2023/04/14 00:04:38;;;;;;;16.10;10.30;;;;;;;12.81;100.00;98576.55;106042;1258;75819;-86
2023/04/14 00:07:07;;;;;;;19.00;10.80;;;;;;;12.93;100.00;98582.93;105865;1262;68683;-83
2023/04/14 00:09:37;;;;;;;12.30;10.90;;;;;;;13.09;100.00;98582.31;105841;1258;73232;-86
2023/04/14 00:12:06;;;;;;;12.90;9.90;;;;;;;12.65;100.00;98585.23;105952;1262;61212;-86
2023/04/14 00:14:34;;;;;;;20.20;10.60;;;;;;;12.88;100.00;98587.65;105864;1257;61474;-86
2023/04/14 00:17:08;;;;;;;11.90;10.70;;;;;;;12.22;100.00;98580.31;105634;1264;75566;-86
2023/04/14 00:19:38;;;;;;;12.20;9.60;;;;;;;11.96;100.00;98576.47;105808;1260;69929;-86
2023/04/14 00:22:06;;;;;;;15.20;9.20;;;;;;;12.00;100.00;98575.38;105892;1260;72323;-84
2023/04/14 00:24:42;;;;;;;14.70;10.00;;;;;;;11.85;100.00;98575.81;105874;1261;62798;-85
2023/04/14 00:27:10;;;;;;;12.00;10.30;;;;;;;11.81;100.00;98579.04;105898;1257;62163;-84
2023/04/14 00:29:39;;;;;;;12.70;10.10;;;;;;;11.95;100.00;98578.70;105866;1262;75685;-84
2023/04/14 00:32:07;;;;;;;17.20;10.00;;;;;;;12.34;100.00;98578.86;105951;1262;67275;-84
2023/04/14 00:34:36;;;;;;;14.20;8.90;;;;;;;12.68;100.00;98580.66;105791;1263;73036;-85
2023/04/14 00:37:04;;;;;;;15.80;10.10;;;;;;;12.88;100.00;98584.73;106042;1257;61351;-84
2023/04/14 00:39:33;;;;;;;14.60;10.50;;;;;;;13.05;100.00;98589.16;105995;1260;61255;-84
2023/04/14 00:42:01;;;;;;;13.20;10.20;;;;;;;12.90;100.00;98586.54;105936;1262;75752;-85
2023/04/14 00:44:30;;;;;;;14.70;9.40;;;;;;;12.74;100.00;98583.42;106342;1260;68614;-84
2023/04/14 00:46:59;;;;;;;15.10;9.50;;;;;;;12.60;100.00;98585.34;106079;1262;71171;-84
2023/04/14 00:49:27;;;;;;;15.60;9.60;;;;;;;12.73;100.00;98589.90;106080;1260;62032;-84
2023/04/14 00:51:56;;;;;;;13.60;8.80;;;;;;;12.83;100.00;98591.92;106195;1263;61229;-84
2023/04/14 00:54:25;;;;;;;13.80;9.30;;;;;;;12.65;100.00;98596.10;106003;1262;75051;-84
2023/04/14 00:56:54;;;;;;;15.60;8.70;;;;;;;12.19;100.00;98595.13;106132;1258;69799;-85
2023/04/14 00:59:22;;;;;;;13.80;9.70;;;;;;;11.71;100.00;98595.35;106076;1260;72121;-86
2023/04/14 01:01:50;;;;;;;11.30;7.60;;;;;;;11.98;100.00;98596.56;105960;1263;61961;-85
2023/04/14 01:04:19;;;;;;;9.90;8.50;;;;;;;11.85;100.00;98592.97;106112;1260;61228;-85
2023/04/14 01:06:48;;;;;;;;;;;;;;;11.74;100.00;98592.86;106084;1260;74926;-85
2023/04/14 01:09:16;;;;;;;10.50;7.60;;;;;;;11.98;100.00;98594.02;106051;1262;69535;-83
2023/04/14 01:12:01;;;;;;;8.30;7.40;;;;;;;11.76;100.00;98594.02;106042;1261;72524;-85
2023/04/14 01:14:39;;;;;;;12.00;8.00;;;;;;;12.06;100.00;98597.27;105930;1260;62200;-84
2023/04/14 01:17:21;;;;;;;11.10;7.50;;;;;;;12.22;100.00;98598.37;105966;1260;61356;-85
2023/04/14 01:20:24;;;;;;;9.90;7.80;;;;;;;12.03;100.00;98596.50;108844;1257;75762;-85
2023/04/14 01:22:54;;;;;;;9.30;7.30;;;;;;;12.30;100.00;98598.78;108252;1258;68896;-86
2023/04/14 01:25:38;;;;;;;12.20;7.60;;;;;;;12.35;100.00;98598.05;106270;1257;72506;-86
2023/04/14 01:28:32;;;;;;;14.70;8.70;;;;;;;12.02;100.00;98598.61;106111;1260;62733;-85
2023/04/14 01:31:07;;;;;;;12.00;8.20;;;;;;;12.28;100.00;98606.42;105651;1264;61373;-85
2023/04/14 01:33:37;;;;;;;9.40;7.50;;;;;;;12.42;100.00;98604.16;105511;1268;75707;-85
2023/04/14 01:36:12;;;;;;;8.80;7.90;;;;;;;12.42;100.00;98608.86;105500;1266;68885;-84
2023/04/14 01:38:40;;;;;;;12.20;7.70;;;;;;;12.14;100.00;98604.13;105441;1268;71190;-85
2023/04/14 01:41:09;;;;;;;8.50;7.50;;;;;;;12.22;100.00;98604.23;105624;1267;61902;-84
2023/04/14 01:43:41;;;;;;;11.60;7.30;;;;;;;12.03;100.00;98602.23;105786;1266;61354;-83
2023/04/14 01:46:12;;;;;;;10.50;7.60;;;;;;;12.26;100.00;98603.11;105377;1264;74561;-86
2023/04/14 01:48:41;;;;;;;10.10;7.80;;;;;;;11.67;100.00;98599.86;105460;1266;69867;-84
2023/04/14 01:51:11;;;;;;;8.30;7.20;;;;;;;12.00;100.00;98596.27;105836;1268;72730;-85
2023/04/14 01:53:41;;;;;;;9.60;7.60;;;;;;;11.97;100.00;98597.52;105784;1269;61407;-85
2023/04/14 01:56:10;;;;;;;10.70;7.70;;;;;;;11.73;100.00;98597.42;105764;1263;61353;-84
2023/04/14 01:58:39;;;;;;;13.10;8.10;;;;;;;11.58;100.00;98599.80;105833;1268;75728;-84
2023/04/14 02:01:08;;;;;;;15.80;7.80;;;;;;;11.46;100.00;98599.95;105921;1266;68801;-84
2023/04/14 02:03:37;;;;;;;15.40;8.80;;;;;;;11.39;100.00;98600.05;106144;1266;71408;-86
2023/04/14 02:06:06;;;;;;;13.00;8.00;;;;;;;11.59;100.00;98598.65;105616;1269;61195;-84
2023/04/14 02:08:34;;;;;;;11.50;8.20;;;;;;;11.47;100.00;98598.50;105889;1265;61431;-84
2023/04/14 02:11:03;;;;;;;10.00;7.30;;;;;;;11.87;100.00;98603.12;105882;1261;74233;-85
2023/04/14 02:13:41;;;;;;;14.00;7.30;;;;;;;11.92;100.00;98606.30;105589;1266;68778;-86
2023/04/14 02:16:11;;;;;;;9.50;7.60;;;;;;;12.15;100.00;98610.73;105724;1267;73824;-85
2023/04/14 02:18:40;;;;;;;11.40;7.80;;;;;;;11.94;100.00;98607.30;105529;1268;61755;-84
2023/04/14 02:21:10;;;;;;;7.30;6.40;;;;;;;12.04;100.00;98612.42;105800;1265;61301;-85
2023/04/14 02:23:39;;;;;;;;;;;;;;;12.16;100.00;98611.15;105849;1263;75788;-86
2023/04/14 02:26:12;;;;;;;9.90;7.00;;;;;;;11.98;100.00;98610.77;105566;1267;69857;-85
2023/04/14 02:28:49;;;;;;;7.80;7.00;;;;;;;11.56;100.00;98609.76;105702;1262;72466;-83
2023/04/14 02:31:22;;;;;;;8.60;6.30;;;;;;;11.23;100.00;98603.32;106294;1263;63166;-85
2023/04/14 02:33:52;;;;;;;9.60;6.90;;;;;;;11.38;100.00;98608.77;105854;1268;61289;-85
2023/04/14 02:36:26;;;;;;;9.40;6.70;;;;;;;12.04;100.00;98611.81;105863;1265;74361;-85
2023/04/14 02:38:58;;;;;;;10.20;6.90;;;;;;;11.72;100.00;98612.18;105890;1265;69645;-89
2023/04/14 02:41:27;;;;;;;8.00;7.10;;;;;;;11.65;100.00;98611.99;105989;1263;71776;-86
2023/04/14 02:44:22;;;;;;;7.40;6.70;;;;;;;11.59;100.00;98611.55;107847;1257;62607;-85
2023/04/14 02:47:05;;;;;;;8.40;6.70;;;;;;;11.35;100.00;98616.86;108286;1257;60325;-85
2023/04/14 02:49:39;;;;;;;10.40;6.60;;;;;;;11.75;100.00;98621.02;108463;1260;74405;-85
2023/04/14 02:52:14;;;;;;;12.20;7.00;;;;;;;11.51;100.00;98615.55;108362;1257;68237;-85
2023/04/14 02:54:47;;;;;;;9.40;6.70;;;;;;;11.47;100.00;98615.59;108688;1258;72432;-85
2023/04/14 02:57:18;;;;;;;8.80;7.50;;;;;;;11.67;100.00;98616.31;105979;1264;61354;-87
2023/04/14 02:59:47;;;;;;;9.00;8.10;;;;;;;11.88;100.00;98615.27;106006;1258;62420;-87
2023/04/14 03:02:16;;;;;;;13.20;8.30;;;;;;;11.10;100.00;98615.66;105957;1266;75676;-87
2023/04/14 03:04:50;;;;;;;9.50;7.70;;;;;;;10.88;100.00;98612.06;105897;1266;68618;-87
2023/04/14 03:07:25;;;;;;;10.40;7.90;;;;;;;11.40;100.00;98621.34;106149;1262;143579;-84
2023/04/14 03:09:54;;;;;;;8.40;7.50;;;;;;;11.58;100.00;98624.20;106176;1260;62800;-85
2023/04/14 03:12:28;;;;;;;10.40;8.10;;;;;;;11.49;100.00;98628.42;105938;1263;61237;-84
2023/04/14 03:14:58;;;;;;;13.60;8.70;;;;;;;11.47;100.00;98634.39;105976;1265;74859;-85
2023/04/14 03:17:26;;;;;;;11.60;8.30;;;;;;;11.32;100.00;98635.05;105834;1257;69404;-86
2023/04/14 03:19:56;;;;;;;14.10;8.50;;;;;;;11.25;100.00;98640.54;105853;1274;71681;-84
2023/04/14 03:22:26;;;;;;;11.00;9.00;;;;;;;11.22;100.00;98645.27;105881;1257;61242;-84
2023/04/14 03:24:59;;;;;;;12.50;8.60;;;;;;;11.35;100.00;98644.70;105834;1257;59904;-84
2023/04/14 03:27:30;;;;;;;9.70;7.40;;;;;;;11.23;100.00;98645.16;105971;1260;75719;-83
2023/04/14 03:30:03;;;;;;;17.00;8.90;;;;;;;11.60;100.00;98647.34;106288;1261;69909;-84
2023/04/14 03:32:38;;;;;;;11.20;8.40;;;;;;;12.10;100.00;98647.86;105946;1263;72068;-84
2023/04/14 03:35:07;;;;;;;12.80;9.20;;;;;;;11.86;100.00;98646.96;106192;1263;61369;-85
2023/04/14 03:37:37;;;;;;;10.00;8.30;;;;;;;11.46;100.00;98649.94;106094;1265;61788;-85
2023/04/14 03:40:07;;;;;;;9.50;8.50;;;;;;;11.38;100.00;98654.23;106144;1263;75405;-85
2023/04/14 03:42:37;;;;;;;12.00;8.20;;;;;;;11.39;100.00;98655.58;106403;1260;69835;-85
2023/04/14 03:45:06;;;;;;;14.00;9.70;;;;;;;11.54;100.00;98656.59;106059;1264;73380;-86
2023/04/14 03:47:36;;;;;;;10.70;9.40;;;;;;;11.59;100.00;98655.96;106052;1265;61273;-86
2023/04/14 03:50:08;;;;;;;11.30;8.30;;;;;;;12.00;100.00;98658.88;106066;1263;61266;-85
2023/04/14 03:52:37;;;;;;;12.90;8.30;;;;;;;11.89;100.00;98660.91;105976;1266;73590;-86
2023/04/14 03:55:05;;;;;;;12.90;9.90;;;;;;;11.89;100.00;98664.73;106252;1264;68360;-86
2023/04/14 03:57:37;;;;;;;13.00;8.70;;;;;;;11.94;100.00;98665.61;105984;1263;73538;-86
2023/04/14 04:00:09;;;;;;;13.60;9.80;;;;;;;11.26;100.00;98666.74;105991;1263;62528;-84
2023/04/14 04:02:59;;;;;;;14.70;9.00;;;;;;;11.26;100.00;98669.20;105894;1263;61297;-85
2023/04/14 04:05:28;;;;;;;12.60;9.20;;;;;;;11.39;100.00;98671.65;105923;1263;75835;-84
2023/04/14 04:08:01;;;;;;;11.50;9.20;;;;;;;11.31;100.00;98668.01;105944;1260;67551;-84
2023/04/14 04:10:33;;;;;;;13.20;8.90;;;;;;;11.34;100.00;98670.60;106046;1266;72325;-86
2023/04/14 04:13:06;;;;;;;13.10;9.30;;;;;;;11.45;100.00;98673.21;106329;1260;62760;-87
2023/04/14 04:15:40;;;;;;;12.20;10.00;;;;;;;11.53;100.00;98678.02;106038;1263;61501;-88
2023/04/14 04:18:10;;;;;;;12.60;9.70;;;;;;;11.21;100.00;98683.43;105758;1261;75726;-85
2023/04/14 04:20:39;;;;;;;13.40;9.50;;;;;;;10.96;100.00;98681.38;105804;1264;69560;-85
2023/04/14 04:23:08;;;;;;;10.10;8.90;;;;;;;11.18;100.00;98685.70;108176;1259;73640;-85
2023/04/14 04:25:38;;;;;;;;;;;;;;;11.13;100.00;98687.35;108751;1260;61805;-84
2023/04/14 04:28:12;;;;;;;14.60;9.40;;;;;;;11.09;100.00;98691.50;108830;1257;59276;-86
2023/04/14 04:30:44;;;;;;;14.00;11.00;;;;;;;11.35;100.00;98692.04;106201;1262;74768;-85
2023/04/14 04:33:14;;;;;;;16.00;10.50;;;;;;;11.58;100.00;98694.71;106118;1258;69402;-86
2023/04/14 04:35:42;;;;;;;13.60;10.30;;;;;;;11.63;100.00;98699.62;106105;1260;73402;-85
2023/04/14 04:38:11;;;;;;;15.10;9.50;;;;;;;11.75;100.00;98699.41;106065;1263;61988;-85
2023/04/14 04:40:46;;;;;;;11.50;9.70;;;;;;;11.76;100.00;98702.05;106269;1258;61305;-85
2023/04/14 04:43:23;;;;;;;12.10;9.80;;;;;;;11.69;100.00;98703.33;106460;1260;75745;-85
2023/04/14 04:45:57;;;;;;;13.30;9.60;;;;;;;12.06;100.00;98709.81;106412;1263;68156;-84
2023/04/14 04:48:26;;;;;;;12.00;10.00;;;;;;;11.86;100.00;98710.67;106388;1261;73007;-85
2023/04/14 04:50:55;;;;;;;13.00;9.50;;;;;;;11.88;100.00;98712.55;106441;1259;61630;-87
2023/04/14 04:53:23;;;;;;;15.80;11.00;;;;;;;11.88;100.00;98715.11;106471;1257;61348;-84
2023/04/14 04:55:53;;;;;;;15.20;10.80;;;;;;;11.51;100.00;98716.98;106486;1261;75524;-84
2023/04/14 04:58:24;;;;;;;12.30;9.40;;;;;;;10.85;100.00;98718.96;106428;1262;69319;-86
2023/04/14 05:00:53;;;;;;;12.90;10.80;;;;;;;10.70;100.00;98714.74;106418;1257;73366;-86
2023/04/14 05:03:25;;;;;;;13.10;9.70;;;;;;;10.80;100.00;98717.61;106500;1262;61787;-86
2023/04/14 05:05:53;;;;;;;11.10;9.30;;;;;;;10.70;100.00;98716.45;106499;1257;61395;-85
2023/04/14 05:08:22;;;;;;;12.50;9.50;;;;;;;10.93;100.00;98713.19;106329;1262;74327;-84
2023/04/14 05:10:51;;;;;;;10.80;9.30;;;;;;;10.99;100.00;98714.94;106285;1262;69859;-85
2023/04/14 05:13:21;;;;;;;13.00;10.10;;;;;;;10.96;100.00;98716.98;106135;1257;71276;-85
2023/04/14 05:15:50;;;;;;;13.30;9.90;;;;;;;10.87;100.00;98716.01;106233;1257;62058;-83
2023/04/14 05:18:20;;;;;;;12.20;9.80;;;;;;;11.07;100.00;98723.16;106388;1258;61188;-84
2023/04/14 05:21:23;;;;;;;14.30;9.60;;;;;;;11.16;100.00;98725.10;106295;1263;75087;-85
2023/04/14 05:23:54;;;;;;;13.90;9.50;;;;;;;11.19;100.00;98723.20;106184;1262;68982;-85
2023/04/14 05:26:26;;;;;;;12.70;10.80;;;;;;;11.03;100.00;98732.05;106114;1257;73739;-82
2023/04/14 05:29:15;;;;;;;13.60;9.40;;;;;;;11.01;100.00;98730.18;106087;1262;63078;-85
2023/04/14 05:31:43;;;;;;;;;;;;;;;11.21;100.00;98733.93;106152;1262;61476;-84
2023/04/14 05:34:12;;;;;;;12.10;9.30;;;;;;;11.17;100.00;98737.55;106069;1257;74433;-85
2023/04/14 05:36:41;;;;;;;11.60;9.70;;;;;;;11.16;100.00;98739.45;106381;1263;69618;-84
2023/04/14 05:39:09;;;;;;;;;;;;;;;11.29;100.00;98738.35;106201;1258;73761;-84
2023/04/14 05:41:38;;;;;;;14.10;10.00;;;;;;;11.22;100.00;98742.68;106238;1257;63348;-86
2023/04/14 05:44:07;;;;;;;11.40;9.10;;;;;;;11.14;100.00;98740.20;106414;1257;61244;-87
2023/04/14 05:46:35;;;;;;;11.70;9.40;;;;;;;11.30;100.00;98740.60;106291;1261;74977;-86
2023/04/14 05:49:05;;;;;;;11.30;8.80;;;;;;;11.30;100.00;98745.92;106253;1257;69835;-87
2023/04/14 05:51:35;;;;;;;13.70;9.30;;;;;;;11.34;100.00;98746.63;106339;1262;72923;-85
2023/04/14 05:54:06;;;;;;;11.70;8.80;;;;;;;11.63;100.00;98741.83;106009;1257;62993;-84
2023/04/14 05:56:35;;;;;;;12.00;9.70;;;;;;;11.87;100.00;98749.41;106184;1258;61295;-84
2023/04/14 05:59:05;;;;;;;11.50;8.40;;;;;;;11.90;100.00;98748.84;106176;1262;75506;-85
2023/04/14 06:01:34;;;;;;;9.70;8.20;;;;;;;11.89;100.00;98746.05;106538;1257;68628;-83
2023/04/14 06:04:05;;;;;;;11.70;8.40;;;;;;;12.13;100.00;98755.31;106223;1262;73386;-84
2023/04/14 06:06:34;;;;;;;14.80;8.20;;;;;;;12.22;100.00;98762.66;106164;1257;62932;-85
2023/04/14 06:09:04;;;;;;;10.50;8.70;;;;;;;12.34;100.00;98773.14;106111;1259;61262;-84
2023/04/14 06:11:32;;;;;;;9.60;8.00;;;;;;;12.46;100.00;98774.09;106239;1262;75393;-85
2023/04/14 06:14:01;;;;;;;11.20;8.30;;;;;;;12.44;100.00;98781.81;106174;1257;69767;-84
2023/04/14 06:16:30;;;;;;;10.30;9.00;;;;;;;12.47;100.00;98782.31;106218;1260;73495;-84
2023/04/14 06:19:03;;;;;;;11.10;8.80;;;;;;;12.29;100.00;98784.59;106367;1257;62221;-84
2023/04/14 06:21:39;;;;;;;11.20;8.20;;;;;;;11.95;100.00;98785.65;106382;1258;61225;-83
2023/04/14 06:24:10;;;;;;;9.10;8.10;;;;;;;12.12;100.00;98791.22;105967;1264;75372;-86
2023/04/14 06:26:38;;;;;;;11.00;8.50;;;;;;;12.03;100.00;98798.33;106330;1257;68203;-87
2023/04/14 06:29:08;;;;;;;10.00;8.20;;;;;;;11.86;100.00;98798.89;106284;1257;73840;-86
2023/04/14 06:31:36;;;;;;;8.90;7.80;;;;;;;11.98;100.00;98801.81;106287;1257;62529;-86
2023/04/14 06:34:05;;;;;;;;;;;;;;;11.93;100.00;98803.09;106392;1257;61337;-85
2023/04/14 06:36:34;;;;;;;12.20;9.60;;;;;;;12.02;100.00;98805.77;106329;1257;75689;-86
2023/04/14 06:39:03;;;;;;;10.70;8.90;;;;;;;11.59;100.00;98814.20;106379;1262;69454;-85
2023/04/14 06:41:32;;;;;;;11.40;9.20;;;;;;;11.60;100.00;98812.70;106304;1264;73753;-84
2023/04/14 06:44:10;;;;;;;11.80;9.90;;;;;;;11.75;100.00;98810.61;106247;1260;62773;-85
2023/04/14 06:46:38;;;;;;;9.80;8.10;;;;;;;11.51;100.00;98818.88;106332;1257;61320;-85
2023/04/14 06:49:07;;;;;;;9.20;7.90;;;;;;;11.46;100.00;98822.94;106075;1266;74779;-85
2023/04/14 06:51:37;;;;;;;9.10;8.20;;;;;;;11.41;100.00;98821.08;106302;1257;67787;-85
2023/04/14 06:54:05;;;;;;;10.10;9.00;;;;;;;11.47;100.00;98826.96;106205;1262;70510;-85
2023/04/14 06:56:34;;;;;;;11.40;8.80;;;;;;;11.23;100.00;98825.25;106412;1257;62982;-85
2023/04/14 06:59:02;;;;;;;12.70;9.50;;;;;;;11.20;100.00;98828.16;106636;1263;61291;-85
2023/04/14 07:01:32;;;;;;;15.00;9.50;;;;;;;11.24;100.00;98828.41;106708;1261;75745;-84
2023/04/14 07:04:02;;;;;;;12.60;10.20;;;;;;;11.02;100.00;98824.80;106854;1257;67506;-85
2023/04/14 07:06:35;;;;;;;11.50;9.20;;;;;;;11.09;100.00;98822.83;106743;1259;73769;-86
2023/04/14 07:09:05;;;;;;;9.70;8.40;;;;;;;10.89;100.00;98820.43;106511;1257;61230;-85
2023/04/14 07:11:34;;;;;;;10.60;9.50;;;;;;;11.15;100.00;98819.31;106468;1258;60507;-85
2023/04/14 07:14:03;;;;;;;11.00;9.10;;;;;;;11.50;100.00;98819.63;106288;1258;75347;-85
2023/04/14 07:16:31;;;;;;;15.30;9.90;;;;;;;11.71;100.00;98821.02;106530;1257;69801;-87
2023/04/14 07:19:00;;;;;;;14.00;11.20;;;;;;;11.66;100.00;98819.20;106388;1257;73186;-84
2023/04/14 07:21:28;;;;;;;;;;;;;;;11.69;100.00;98821.07;106101;1257;62342;-86
2023/04/14 07:24:04;;;;;;;13.20;10.70;;;;;;;11.68;100.00;98818.29;106240;1257;61327;-86
2023/04/14 07:26:32;;;;;;;14.10;10.90;;;;;;;11.57;100.00;98815.98;107675;1257;75250;-87
2023/04/14 07:29:00;;;;;;;12.50;10.40;;;;;;;11.29;100.00;98816.57;109267;1257;68266;-84
2023/04/14 07:31:34;;;;;;;11.70;9.90;;;;;;;10.88;100.00;98811.36;107715;1257;72677;-86
2023/04/14 07:34:03;;;;;;;11.70;10.40;;;;;;;10.82;100.00;98812.77;106942;1258;61668;-86
2023/04/14 07:36:31;;;;;;;15.30;13.40;;;;;;;11.03;100.00;98810.77;106760;1262;61411;-85
2023/04/14 07:39:00;;;;;;;;;;;;;;;11.02;100.00;98811.86;106786;1257;74575;-84
2023/04/14 07:41:29;;;;;;;13.90;10.60;;;;;;;11.25;100.00;98813.20;106659;1257;69918;-84
2023/04/14 07:43:58;;;;;;;13.70;11.30;;;;;;;11.41;100.00;98816.23;106471;1257;72899;-81
2023/04/14 07:46:28;;;;;;;13.50;10.30;;;;;;;11.46;100.00;98818.15;106731;1263;62798;-84
2023/04/14 07:48:56;;;;;;;10.40;9.30;;;;;;;11.34;100.00;98814.24;106535;1262;61532;-86
2023/04/14 07:51:32;;;;;;;16.90;15.10;;;;;;;11.53;100.00;98816.02;106891;1257;75272;-85
2023/04/14 07:54:01;;;;;;;19.00;14.60;;;;;;;11.92;100.00;98815.08;106744;1257;67472;-82
2023/04/14 07:56:32;;;;;;;21.40;17.00;;;;;;;11.71;100.00;98812.52;106961;1257;71740;-85
2023/04/14 07:59:00;;;;;;;16.60;12.50;;;;;;;11.54;100.00;98807.84;106740;1257;63078;-81
2023/04/14 08:01:29;;;;;;;14.50;10.40;;;;;;;11.32;100.00;98812.08;106714;1257;61723;-80
2023/04/14 08:03:57;;;;;;;12.00;10.30;;;;;;;11.69;100.00;98817.10;106496;1260;72928;-83
2023/04/14 08:06:27;;;;;;;12.40;10.30;;;;;;;11.58;100.00;98819.00;106503;1257;68511;-84
2023/04/14 08:08:55;;;;;;;11.40;10.00;;;;;;;11.40;100.00;98822.43;106580;1258;71690;-84
2023/04/14 08:11:24;;;;;;;11.30;10.10;;;;;;;11.31;100.00;98811.94;106446;1258;62898;-83
2023/04/14 08:13:52;;;;;;;11.60;10.10;;;;;;;11.07;100.00;98813.34;106741;1257;61151;-83
2023/04/14 08:16:26;;;;;;;12.30;10.20;;;;;;;11.03;100.00;98813.95;106599;1257;73671;-84
2023/04/14 08:18:55;;;;;;;15.80;13.00;;;;;;;11.03;100.00;98819.42;106583;1257;69733;-81
2023/04/14 08:21:26;;;;;;;13.20;11.90;;;;;;;11.46;100.00;98818.58;106408;1257;73766;-83
2023/04/14 08:23:58;;;;;;;19.40;15.70;;;;;;;11.53;100.00;98816.88;106347;1257;62865;-82
2023/04/14 08:26:27;;;;;;;16.90;13.00;;;;;;;11.39;100.00;98818.13;106219;1257;61439;-79
2023/04/14 08:28:55;;;;;;;15.60;11.20;;;;;;;11.49;100.00;98812.65;106325;1257;75532;-84
2023/04/14 08:31:29;;;;;;;18.10;14.00;;;;;;;11.49;100.00;98812.06;106144;1257;69033;-82
2023/04/14 08:33:57;;;;;;;14.40;12.60;;;;;;;11.50;100.00;98810.80;106165;1257;73581;-81
2023/04/14 08:36:26;;;;;;;19.60;14.70;;;;;;;11.68;100.00;98811.89;106370;1257;61678;-84
2023/04/14 08:38:58;;;;;;;26.90;20.60;;;;;;;11.77;100.00;98811.98;106339;1258;61238;-83
2023/04/14 08:41:27;;;;;;;22.60;15.70;;;;;;;11.89;100.00;98809.13;106405;1262;74691;-83
2023/04/14 08:43:56;;;;;;;21.80;15.80;;;;;;;11.97;100.00;98805.64;106348;1257;68516;-82
2023/04/14 08:46:29;;;;;;;18.30;13.80;;;;;;;12.01;100.00;98803.56;105961;1258;72921;-84
2023/04/14 08:49:03;;;;;;;22.70;18.00;;;;;;;12.30;100.00;98807.25;106305;1257;61950;-84
2023/04/14 08:51:38;;;;;;;17.90;13.30;;;;;;;12.41;100.00;98813.52;106203;1257;62330;-83
2023/04/14 08:54:09;;;;;;;17.90;14.40;;;;;;;12.13;100.00;98807.23;106151;1264;75454;-84
2023/04/14 08:56:40;;;;;;;20.60;14.50;;;;;;;12.17;100.00;98808.70;106293;1257;67839;-81
2023/04/14 08:59:10;;;;;;;17.20;12.00;;;;;;;12.20;100.00;98806.52;106213;1257;71590;-85
2023/04/14 09:01:38;;;;;;;17.90;13.50;;;;;;;12.14;100.00;98812.34;106197;1258;61780;-84
2023/04/14 09:04:06;;;;;;;;;;;;;;;12.37;100.00;98812.56;106179;1257;61353;-85
2023/04/14 09:06:36;;;;;;;21.80;15.30;;;;;;;12.57;100.00;98812.75;106156;1257;74588;-80
2023/04/14 09:09:07;;;;;;;26.70;18.60;;;;;;;12.75;100.00;98811.75;106164;1257;69384;-82
2023/04/14 09:11:38;;;;;;;32.30;22.00;;;;;;;12.75;100.00;98811.21;106274;1257;73507;-81
2023/04/14 09:14:08;;;;;;;39.80;25.80;;;;;;;12.86;100.00;98814.52;106294;1257;62982;-84
2023/04/14 09:16:43;;;;;;;38.40;25.10;;;;;;;12.87;100.00;98813.02;106026;1258;61221;-82
2023/04/14 09:19:12;;;;;;;65.00;47.10;;;;;;;12.96;100.00;98821.54;106052;1264;74325;-84
2023/04/14 09:21:40;;;;;;;34.10;26.10;;;;;;;12.88;100.00;98817.59;106339;1262;69891;-82
2023/04/14 09:24:32;;;;;;;16.40;13.30;;;;;;;12.95;100.00;98819.29;106341;1257;72823;-83
2023/04/14 09:27:04;;;;;;;20.90;14.70;;;;;;;13.14;100.00;98822.95;105803;1263;61938;-83
2023/04/14 09:29:33;;;;;;;20.70;16.50;;;;;;;13.16;100.00;98831.94;106047;1257;61208;-83
2023/04/14 09:32:10;;;;;;;16.30;13.10;;;;;;;13.05;100.00;98830.97;106136;1262;75591;-83
2023/04/14 09:34:52;;;;;;;17.30;14.20;;;;;;;12.81;100.00;98828.66;106206;1257;68888;-83
2023/04/14 09:37:24;;;;;;;108.40;59.60;;;;;;;12.79;100.00;98846.23;106527;1257;72738;-86
2023/04/14 09:39:56;;;;;;;23.80;15.60;;;;;;;12.81;100.00;98844.54;106470;1257;62548;-85
2023/04/14 09:42:39;;;;;;;45.20;25.40;;;;;;;12.55;100.00;98849.86;106674;1257;62251;-84
2023/04/14 09:45:08;;;;;;;61.30;33.90;;;;;;;12.90;100.00;98852.91;107094;1258;74956;-83
2023/04/14 09:47:40;;;;;;;52.40;28.40;;;;;;;12.60;100.00;98849.82;107035;1262;68755;-85
2023/04/14 09:50:12;;;;;;;39.40;23.80;;;;;;;12.98;100.00;98855.67;107620;1257;73475;-82
2023/04/14 09:52:43;;;;;;;39.30;25.80;;;;;;;13.11;100.00;98857.63;107957;1257;61420;-85
2023/04/14 09:55:15;;;;;;;25.00;16.60;;;;;;;13.27;100.00;98862.15;106713;1257;61230;-83
2023/04/14 09:57:46;;;;;;;16.30;12.50;;;;;;;13.36;100.00;98867.39;106812;1257;72946;-85
2023/04/14 10:00:15;;;;;;;22.60;15.30;;;;;;;13.09;100.00;98871.34;106416;1265;68721;-83
2023/04/14 10:03:08;;;;;;;35.80;22.50;;;;;;;12.98;100.00;98871.94;106829;1257;74899;-85
2023/04/14 10:05:38;;;;;;;37.90;24.10;;;;;;;13.13;100.00;98876.42;106816;1257;61147;-84
2023/04/14 10:08:06;;;;;;;29.90;19.80;;;;;;;13.21;100.00;98875.23;106865;1258;61218;-81
2023/04/14 10:10:34;;;;;;;23.20;16.10;;;;;;;13.30;100.00;98875.80;106233;1257;74234;-84
2023/04/14 10:13:07;;;;;;;75.30;34.30;;;;;;;13.37;100.00;98877.73;106520;1257;68617;-84
2023/04/14 10:15:38;;;;;;;21.50;13.80;;;;;;;13.50;100.00;98874.48;106238;1257;72349;-85
2023/04/14 10:18:07;;;;;;;34.60;17.50;;;;;;;13.25;100.00;98878.98;106735;1257;61840;-84
2023/04/14 10:20:37;;;;;;;24.90;16.80;;;;;;;13.42;100.00;98876.60;106801;1257;61176;-83
2023/04/14 10:23:05;;;;;;;17.20;12.70;;;;;;;13.20;100.00;98877.36;106716;1257;74662;-86
2023/04/14 10:25:34;;;;;;;33.70;19.60;;;;;;;13.01;100.00;98881.17;106571;1262;68526;-85
2023/04/14 10:28:04;;;;;;;59.00;31.60;;;;;;;13.01;100.00;98886.45;106459;1260;72714;-81
2023/04/14 10:30:34;;;;;;;35.40;19.70;;;;;;;13.06;100.00;98884.30;107803;1257;61995;-83
2023/04/14 10:33:02;;;;;;;29.40;17.50;;;;;;;13.17;100.00;98889.67;109242;1257;60036;-84
2023/04/14 10:35:42;;;;;;;45.00;22.40;;;;;;;13.13;100.00;98892.69;109164;1257;74300;-84
2023/04/14 10:38:10;;;;;;;21.80;15.00;;;;;;;13.29;100.00;98892.59;106992;1258;68277;-81
2023/04/14 10:41:08;;;;;;;31.10;19.60;;;;;;;13.64;100.00;98900.95;107498;1261;72853;-85
2023/04/14 10:43:39;;;;;;;34.00;22.30;;;;;;;13.75;100.00;98899.55;106806;1260;61270;-86
2023/04/14 10:46:09;;;;;;;57.00;28.80;;;;;;;14.13;100.00;98907.97;107010;1263;61188;-84
2023/04/14 10:48:41;;;;;;;26.90;17.30;;;;;;;14.02;100.00;98907.60;106651;1259;75246;-85
2023/04/14 10:51:10;;;;;;;29.70;19.90;;;;;;;14.10;100.00;98908.52;106816;1260;69572;-85
2023/04/14 10:53:54;;;;;;;14.60;11.70;;;;;;;13.81;100.00;98905.20;107025;1260;73630;-86
2023/04/14 10:56:23;;;;;;;72.90;34.50;;;;;;;13.86;100.00;98905.94;107720;1264;61354;-84
2023/04/14 10:58:56;;;;;;;97.30;44.80;;;;;;;14.07;100.00;98907.05;107770;1264;59588;-86
2023/04/14 11:01:30;;;;;;;90.30;43.30;;;;;;;14.01;100.00;98907.30;107342;1264;73959;-85
2023/04/14 11:04:17;;;;;;;93.00;43.80;;;;;;;14.33;100.00;98914.33;107602;1264;67106;-84
2023/04/14 11:06:52;;;;;;;71.60;36.90;;;;;;;12.12;100.00;98909.65;107571;1264;71522;-85
2023/04/14 11:09:29;;;;;;;54.60;29.60;;;;;;;11.60;100.00;98910.52;106555;1273;62563;-84
2023/04/14 11:12:26;;;;;;;167.30;67.50;;;;;;;11.23;100.00;98914.65;106658;1264;61309;-84
2023/04/14 11:15:02;;;;;;;81.40;38.10;;;;;;;11.52;100.00;98918.89;106322;1267;75458;-84
2023/04/14 11:17:37;;;;;;;100.50;40.60;;;;;;;11.29;100.00;98920.80;105885;1263;67326;-85
2023/04/14 11:20:19;;;;;;;32.40;19.10;;;;;;;11.28;100.00;98924.30;106265;1264;72917;-85
2023/04/14 11:22:52;;;;;;;64.20;29.80;;;;;;;11.43;100.00;98925.44;106125;1264;61482;-85
2023/04/14 11:25:21;;;;;;;34.30;19.70;;;;;;;11.55;100.00;98922.64;106128;1269;61532;-86
2023/04/14 11:27:52;;;;;;;57.60;27.30;;;;;;;11.67;100.00;98925.81;106341;1260;74721;-87
2023/04/14 11:30:21;;;;;;;38.30;21.50;;;;;;;11.61;100.00;98922.45;106017;1261;69271;-86